createdAt,value
2019-04-03T00:00:34.355Z,9.63
2019-04-03T00:02:38.236Z,12.47
2019-04-03T00:04:42.192Z,11.77
2019-04-03T00:06:46.127Z,10.60
2019-04-03T00:08:50.504Z,10.50
2019-04-03T00:10:54.417Z,12.97
2019-04-03T00:12:59.499Z,10.33
2019-04-03T00:15:04.839Z,10.20
2019-04-03T00:17:08.717Z,12.40
2019-04-03T00:19:14.100Z,11.07
2019-04-03T00:21:19.745Z,10.43
2019-04-03T00:23:23.593Z,8.87
2019-04-03T00:25:27.554Z,8.57
2019-04-03T00:27:31.458Z,10.60
2019-04-03T00:29:38.791Z,11.10
2019-04-03T00:31:44.293Z,10.27
2019-04-03T00:33:48.217Z,15.60
2019-04-03T00:35:53.641Z,11.30
2019-04-03T00:37:57.875Z,11.20
2019-04-03T00:40:04.343Z,7.57
2019-04-03T00:42:09.325Z,11.67
2019-04-03T00:44:13.254Z,10.37
2019-04-03T00:46:17.196Z,7.77
2019-04-03T00:48:21.453Z,8.10
2019-04-03T00:50:26.922Z,12.10
2019-04-03T00:52:31.119Z,11.47
2019-04-03T00:54:35.044Z,9.23
2019-04-03T00:56:39.023Z,13.23
2019-04-03T00:58:43.934Z,14.07
2019-04-03T01:00:50.035Z,10.67
2019-04-03T01:02:54.046Z,16.87
2019-04-03T01:04:58.860Z,9.67
2019-04-03T01:07:03.084Z,13.20
2019-04-03T01:09:08.298Z,12.37
2019-04-03T01:11:12.667Z,12.50
2019-04-03T01:13:16.697Z,10.90
2019-04-03T01:15:20.661Z,12.83
2019-04-03T01:17:24.553Z,10.03
2019-04-03T01:19:28.522Z,9.67
2019-04-03T01:21:32.527Z,12.40
2019-04-03T01:23:37.991Z,12.17
2019-04-03T01:25:42.111Z,12.90
2019-04-03T01:27:47.401Z,13.27
2019-04-03T01:29:51.642Z,12.53
2019-04-03T01:31:55.800Z,13.87
2019-04-03T01:33:59.703Z,13.37
2019-04-03T01:36:03.733Z,14.33
2019-04-03T01:38:08.673Z,14.73
2019-04-03T01:40:16.325Z,18.00
2019-04-03T01:42:22.216Z,16.80
2019-04-03T01:44:25.820Z,14.20
2019-04-03T01:46:37.887Z,14.20
2019-04-03T01:48:42.455Z,12.13
2019-04-03T01:50:46.467Z,17.87
2019-04-03T01:52:50.388Z,19.00
2019-04-03T01:54:54.416Z,17.63
2019-04-03T01:56:58.398Z,18.97
2019-04-03T01:59:02.291Z,10.70
2019-04-03T02:01:06.300Z,20.70
2019-04-03T02:03:11.921Z,13.83
2019-04-03T02:05:17.923Z,10.10
2019-04-03T02:07:22.022Z,20.13
2019-04-03T02:09:26.021Z,13.10
2019-04-03T02:11:30.034Z,12.13
2019-04-03T02:13:34.049Z,20.23
2019-04-03T02:15:37.983Z,16.73
2019-04-03T02:17:42.368Z,12.10
2019-04-03T02:19:46.296Z,16.57
2019-04-03T02:21:50.291Z,13.20
2019-04-03T02:23:55.826Z,18.83
2019-04-03T02:26:02.010Z,15.70
2019-04-03T02:28:05.497Z,18.73
2019-04-03T02:30:13.043Z,15.83
2019-04-03T02:32:15.652Z,20.83
2019-04-03T02:34:19.527Z,21.73
2019-04-03T02:36:23.888Z,20.83
2019-04-03T02:38:27.885Z,20.43
2019-04-03T02:40:33.066Z,24.63
2019-04-03T02:42:40.601Z,18.73
2019-04-03T02:44:42.797Z,15.13
2019-04-03T02:46:46.741Z,14.87
2019-04-03T02:48:50.827Z,20.27
2019-04-03T02:50:55.435Z,21.13
2019-04-03T02:52:59.701Z,21.23
2019-04-03T02:55:07.424Z,21.07
2019-04-03T02:57:16.682Z,28.50
2019-04-03T02:59:17.890Z,25.33
2019-04-03T03:01:21.874Z,30.43
2019-04-03T03:03:27.285Z,28.60
2019-04-03T03:05:31.166Z,29.10
2019-04-03T03:07:36.317Z,31.40
2019-04-03T03:09:41.153Z,28.00
2019-04-03T03:11:46.659Z,31.03
2019-04-03T03:13:51.554Z,31.73
2019-04-03T03:15:56.661Z,30.97
2019-04-03T03:18:00.746Z,30.60
2019-04-03T03:20:07.981Z,26.43
2019-04-03T03:22:14.715Z,27.87
2019-04-03T03:24:18.568Z,27.73
2019-04-03T03:26:23.412Z,25.10
2019-04-03T03:28:27.894Z,22.93
2019-04-03T03:30:41.868Z,23.00
2019-04-03T03:32:39.029Z,22.23
2019-04-03T03:34:52.921Z,22.33
2019-04-03T03:36:51.216Z,23.67
2019-04-03T03:38:58.904Z,21.67
2019-04-03T03:41:04.280Z,22.80
2019-04-03T03:43:08.842Z,23.67
2019-04-03T03:45:19.419Z,23.60
2019-04-03T03:47:21.633Z,24.63
2019-04-03T03:49:26.788Z,22.70
2019-04-03T03:51:33.755Z,25.80
2019-04-03T03:53:38.464Z,24.17
2019-04-03T03:55:43.728Z,21.87
2019-04-03T03:57:48.619Z,20.50
2019-04-03T03:59:52.898Z,23.33
2019-04-03T04:01:57.137Z,24.17
2019-04-03T04:04:01.518Z,23.20
2019-04-03T04:06:05.994Z,22.17
2019-04-03T04:08:11.729Z,25.30
2019-04-03T04:10:18.576Z,27.57
2019-04-03T04:12:23.287Z,22.97
2019-04-03T04:14:28.240Z,25.50
2019-04-03T04:16:35.957Z,25.63
2019-04-03T04:18:39.398Z,23.20
2019-04-03T04:20:45.068Z,24.40
2019-04-03T04:22:51.432Z,23.83
2019-04-03T04:24:59.130Z,24.33
2019-04-03T04:27:03.579Z,22.97
2019-04-03T04:29:10.285Z,23.47
2019-04-03T04:31:13.547Z,23.03
2019-04-03T04:33:18.894Z,26.37
2019-04-03T04:35:22.836Z,26.03
2019-04-03T04:37:29.250Z,22.57
2019-04-03T04:39:33.847Z,25.20
2019-04-03T04:41:37.876Z,23.30
2019-04-03T04:43:42.023Z,24.97
2019-04-03T04:45:46.542Z,24.40
2019-04-03T04:47:50.617Z,28.10
2019-04-03T04:49:54.576Z,25.03
2019-04-03T04:51:58.473Z,24.63
2019-04-03T04:54:02.474Z,27.60
2019-04-03T04:56:07.371Z,25.93
2019-04-03T04:58:11.983Z,26.70
2019-04-03T05:00:17.546Z,25.97
2019-04-03T05:02:21.592Z,24.90
2019-04-03T05:04:25.707Z,26.67
2019-04-03T05:06:29.981Z,25.03
2019-04-03T05:08:34.013Z,26.30
2019-04-03T05:10:38.091Z,24.43
2019-04-03T05:12:44.725Z,27.03
2019-04-03T05:14:48.939Z,26.20
2019-04-03T05:16:54.084Z,25.80
2019-04-03T05:19:08.685Z,27.27
2019-04-03T05:21:05.284Z,26.60
2019-04-03T05:23:09.301Z,28.50
2019-04-03T05:25:13.649Z,25.37
2019-04-03T05:27:19.010Z,26.53
2019-04-03T05:29:22.954Z,25.97
2019-04-03T05:31:26.830Z,26.73
2019-04-03T05:33:30.765Z,29.43
2019-04-03T05:35:37.424Z,26.47
2019-04-03T05:37:41.002Z,28.23
2019-04-03T05:39:44.908Z,26.33
2019-04-03T05:41:48.824Z,28.90
2019-04-03T05:43:54.303Z,29.37
2019-04-03T05:45:59.116Z,31.20
2019-04-03T05:48:04.209Z,27.37
2019-04-03T05:50:09.218Z,28.70
2019-04-03T05:52:13.254Z,28.73
2019-04-03T05:54:17.379Z,30.27
2019-04-03T05:56:21.571Z,26.87
2019-04-03T05:58:26.978Z,26.73
2019-04-03T06:00:30.874Z,30.30
2019-04-03T06:02:35.214Z,28.00
2019-04-03T06:04:40.748Z,28.30
2019-04-03T06:06:46.825Z,26.70
2019-04-03T06:08:51.830Z,26.00
2019-04-03T06:10:57.991Z,26.77
2019-04-03T06:13:04.896Z,28.13
2019-04-03T06:15:09.808Z,26.23
2019-04-03T06:17:14.134Z,30.17
2019-04-03T06:19:18.184Z,26.27
2019-04-03T06:21:22.163Z,29.10
2019-04-03T06:23:26.375Z,31.00
2019-04-03T06:25:31.100Z,28.53
2019-04-03T06:27:35.353Z,35.27
2019-04-03T06:29:39.380Z,29.67
2019-04-03T06:31:44.757Z,32.67
2019-04-03T06:33:50.995Z,32.80
2019-04-03T06:35:54.198Z,30.40
2019-04-03T06:37:58.114Z,33.03
2019-04-03T06:40:02.969Z,30.33
2019-04-03T06:42:07.878Z,27.93
2019-04-03T06:44:11.932Z,21.33
2019-04-03T06:46:15.853Z,21.30
2019-04-03T06:48:19.853Z,30.63
2019-04-03T06:50:23.731Z,33.07
2019-04-03T06:52:27.660Z,31.60
2019-04-03T06:54:32.356Z,32.50
2019-04-03T06:56:36.468Z,34.23
2019-04-03T06:58:41.844Z,32.73
2019-04-03T07:00:47.328Z,32.40
2019-04-03T07:02:51.549Z,34.60
2019-04-03T07:04:55.610Z,33.00
2019-04-03T07:06:59.827Z,34.70
2019-04-03T07:09:06.234Z,24.87
2019-04-03T07:11:22.424Z,36.50
2019-04-03T07:13:15.751Z,33.97
2019-04-03T07:15:19.918Z,28.00
2019-04-03T07:17:23.965Z,23.53
2019-04-03T07:19:27.874Z,21.77
2019-04-03T07:21:31.760Z,28.73
2019-04-03T07:23:35.865Z,19.33
2019-04-03T07:25:39.938Z,26.60
2019-04-03T07:27:43.909Z,26.53
2019-04-03T07:29:48.932Z,30.60
2019-04-03T07:31:55.141Z,28.47
2019-04-03T07:34:01.889Z,29.73
2019-04-03T07:36:05.209Z,28.00
2019-04-03T07:38:09.132Z,28.00
2019-04-03T07:40:14.460Z,26.70
2019-04-03T07:42:18.563Z,23.20
2019-04-03T07:44:22.654Z,26.40
2019-04-03T07:46:26.620Z,24.17
2019-04-03T07:48:33.033Z,27.07
2019-04-03T07:50:36.961Z,27.37
2019-04-03T07:52:41.092Z,28.63
2019-04-03T07:54:45.022Z,25.40
2019-04-03T07:56:49.057Z,24.93
2019-04-03T07:58:52.958Z,21.10
2019-04-03T08:00:56.861Z,26.77
2019-04-03T08:03:00.804Z,24.67
2019-04-03T08:05:07.032Z,23.40
2019-04-03T08:07:10.952Z,21.83
2019-04-03T08:09:14.837Z,21.17
2019-04-03T08:11:18.808Z,11.90
2019-04-03T08:13:22.744Z,19.27
2019-04-03T08:15:26.639Z,20.17
2019-04-03T08:17:30.560Z,17.13
2019-04-03T08:19:34.499Z,22.03
2019-04-03T08:21:38.797Z,18.23
2019-04-03T08:23:42.819Z,15.37
2019-04-03T08:25:48.400Z,20.63
2019-04-03T08:27:54.510Z,16.60
2019-04-03T08:29:57.958Z,14.23
2019-04-03T08:32:01.864Z,18.43
2019-04-03T08:34:15.601Z,18.63
2019-04-03T08:36:23.356Z,17.60
2019-04-03T08:38:17.113Z,19.90
2019-04-03T08:40:21.618Z,14.97
2019-04-03T08:42:27.753Z,18.97
2019-04-03T08:44:31.922Z,22.50
2019-04-03T08:46:36.359Z,21.30
2019-04-03T08:48:44.735Z,21.80
2019-04-03T08:50:48.704Z,20.37
2019-04-03T08:52:52.585Z,24.23
2019-04-03T08:54:56.534Z,26.03
2019-04-03T08:57:00.408Z,21.40
2019-04-03T08:59:04.307Z,21.00
2019-04-03T09:01:10.461Z,23.13
2019-04-03T09:03:14.657Z,20.50
2019-04-03T09:05:20.101Z,21.03
2019-04-03T09:07:24.956Z,19.37
2019-04-03T09:09:30.433Z,21.67
2019-04-03T09:11:36.293Z,22.03
2019-04-03T09:13:40.001Z,22.07
2019-04-03T09:15:44.138Z,21.40
2019-04-03T09:17:48.132Z,18.83
2019-04-03T09:19:52.051Z,19.83
2019-04-03T09:21:55.980Z,20.73
2019-04-03T09:24:00.131Z,20.47
2019-04-03T09:26:04.104Z,19.70
2019-04-03T09:28:08.971Z,14.07
2019-04-03T09:30:16.207Z,21.67
2019-04-03T09:32:20.882Z,19.33
2019-04-03T09:34:28.756Z,16.93
2019-04-03T09:36:34.330Z,21.73
2019-04-03T09:38:37.579Z,20.60
2019-04-03T09:40:41.711Z,22.27
2019-04-03T09:42:45.635Z,22.73
2019-04-03T09:44:49.822Z,23.00
2019-04-03T09:46:54.060Z,21.10
2019-04-03T09:48:58.008Z,16.43
2019-04-03T09:51:01.921Z,22.60
2019-04-03T09:53:05.945Z,13.67
2019-04-03T09:55:10.176Z,18.60
2019-04-03T09:57:14.342Z,18.83
2019-04-03T09:59:18.457Z,19.63
2019-04-03T10:01:22.680Z,20.17
2019-04-03T10:03:26.632Z,17.47
2019-04-03T10:05:30.617Z,16.33
2019-04-03T10:07:36.318Z,17.27
2019-04-03T10:09:43.105Z,17.97
2019-04-03T10:11:45.699Z,19.47
2019-04-03T10:13:49.818Z,17.07
2019-04-03T10:15:53.847Z,22.37
2019-04-03T10:17:57.758Z,21.93
2019-04-03T10:20:02.021Z,20.23
2019-04-03T10:22:06.172Z,18.33
2019-04-03T10:24:10.281Z,19.30
2019-04-03T10:26:14.261Z,21.23
2019-04-03T10:28:18.595Z,17.47
2019-04-03T10:30:22.760Z,20.97
2019-04-03T10:32:27.669Z,20.33
2019-04-03T10:34:34.824Z,18.67
2019-04-03T10:36:37.849Z,19.03
2019-04-03T10:38:42.769Z,18.47
2019-04-03T10:40:46.763Z,21.20
2019-04-03T10:42:50.683Z,20.10
2019-04-03T10:44:54.595Z,21.20
2019-04-03T10:46:58.871Z,22.80
2019-04-03T10:49:02.911Z,20.80
2019-04-03T10:51:07.065Z,16.03
2019-04-03T10:53:12.484Z,19.33
2019-04-03T10:55:16.413Z,15.93
2019-04-03T10:57:20.313Z,18.37
2019-04-03T10:59:24.253Z,18.17
2019-04-03T11:01:28.178Z,22.20
2019-04-03T11:03:32.071Z,25.23
2019-04-03T11:05:36.096Z,23.50
2019-04-03T11:07:40.183Z,24.17
2019-04-03T11:09:44.521Z,24.73
2019-04-03T11:11:48.565Z,24.27
2019-04-03T11:13:52.473Z,25.00
2019-04-03T11:15:56.398Z,26.17
2019-04-03T11:18:00.510Z,23.03
2019-04-03T11:20:09.121Z,25.07
2019-04-03T11:22:14.185Z,25.23
2019-04-03T11:24:18.206Z,23.67
2019-04-03T11:26:24.868Z,21.40
2019-04-03T11:28:27.716Z,26.43
2019-04-03T11:30:31.726Z,23.00
2019-04-03T11:32:35.638Z,29.27
2019-04-03T11:34:39.517Z,24.27
2019-04-03T11:36:43.484Z,21.63
2019-04-03T11:38:47.726Z,24.17
2019-04-03T11:40:51.681Z,22.43
2019-04-03T11:42:55.706Z,16.87
2019-04-03T11:44:59.590Z,21.10
2019-04-03T11:47:03.546Z,20.57
2019-04-03T11:49:07.727Z,20.27
2019-04-03T11:51:11.985Z,21.47
2019-04-03T11:53:15.934Z,22.77
2019-04-03T11:55:19.891Z,21.03
2019-04-03T11:57:26.651Z,24.97
2019-04-03T11:59:29.398Z,20.83
2019-04-03T12:01:33.646Z,25.23
2019-04-03T12:03:37.544Z,23.00
2019-04-03T12:05:41.636Z,25.10
2019-04-03T12:07:45.680Z,23.07
2019-04-03T12:09:49.606Z,21.13
2019-04-03T12:11:55.075Z,19.87
2019-04-03T12:13:59.363Z,20.57
2019-04-03T12:16:03.373Z,22.63
2019-04-03T12:18:07.260Z,36.73
2019-04-03T12:20:12.223Z,19.43
2019-04-03T12:22:17.786Z,19.07
2019-04-03T12:24:21.814Z,17.93
2019-04-03T12:26:25.745Z,20.10
2019-04-03T12:28:29.623Z,20.57
2019-04-03T12:30:33.657Z,24.50
2019-04-03T12:32:42.897Z,24.70
2019-04-03T12:34:43.866Z,20.70
2019-04-03T12:36:48.987Z,23.37
2019-04-03T12:38:55.396Z,22.10
2019-04-03T12:40:59.277Z,21.83
2019-04-03T12:43:03.288Z,23.77
2019-04-03T12:45:08.361Z,22.60
2019-04-03T12:47:14.424Z,26.03
2019-04-03T12:49:20.056Z,25.57
2019-04-03T12:51:23.920Z,24.60
2019-04-03T12:53:28.177Z,25.33
2019-04-03T12:55:32.404Z,23.37
2019-04-03T12:57:38.875Z,25.00
2019-04-03T12:59:42.496Z,23.23
2019-04-03T13:01:48.646Z,20.63
2019-04-03T13:03:52.069Z,23.40
2019-04-03T13:05:56.186Z,25.37
2019-04-03T13:08:00.396Z,19.07
2019-04-03T13:10:08.015Z,18.40
2019-04-03T13:12:12.864Z,19.20
2019-04-03T13:14:23.840Z,18.50
2019-04-03T13:16:22.668Z,18.23
2019-04-03T13:18:26.650Z,19.30
2019-04-03T13:20:35.971Z,18.07
2019-04-03T13:22:39.976Z,23.67
2019-04-03T13:24:46.187Z,16.67
2019-04-03T13:26:50.511Z,16.90
2019-04-03T13:28:54.784Z,16.30
2019-04-03T13:30:58.768Z,15.03
2019-04-03T13:33:05.645Z,14.90
2019-04-03T13:35:09.301Z,11.60
2019-04-03T13:37:13.242Z,12.47
2019-04-03T13:39:17.145Z,12.50
2019-04-03T13:41:21.315Z,13.67
2019-04-03T13:43:25.650Z,14.43
2019-04-03T13:45:31.484Z,13.23
2019-04-03T13:47:35.453Z,14.27
2019-04-03T13:49:39.352Z,12.47
2019-04-03T13:51:43.278Z,12.63
2019-04-03T13:53:47.588Z,11.17
2019-04-03T13:55:51.600Z,11.40
2019-04-03T13:57:56.384Z,11.40
2019-04-03T14:00:03.678Z,13.13
2019-04-03T14:02:05.862Z,14.53
2019-04-03T14:04:10.001Z,15.57
2019-04-03T14:06:14.095Z,13.50
2019-04-03T14:08:17.985Z,12.73
2019-04-03T14:10:22.179Z,10.40
2019-04-03T14:12:26.189Z,12.20
2019-04-03T14:14:30.341Z,14.07
2019-04-03T14:16:35.528Z,9.90
2019-04-03T14:18:40.767Z,15.87
2019-04-03T14:20:46.986Z,12.77
2019-04-03T14:22:50.906Z,13.50
2019-04-03T14:24:55.044Z,14.60
2019-04-03T14:26:59.161Z,19.97
2019-04-03T14:29:04.243Z,16.30
2019-04-03T14:31:09.447Z,15.43
2019-04-03T14:33:13.573Z,14.53
2019-04-03T14:35:44.624Z,14.30
2019-04-03T14:37:26.576Z,12.40
2019-04-03T14:39:29.223Z,16.90
2019-04-03T14:41:35.244Z,20.00
2019-04-03T14:43:38.930Z,18.60
2019-04-03T14:45:45.143Z,16.33
2019-04-03T14:47:49.957Z,14.87
2019-04-03T14:49:53.959Z,13.07
2019-04-03T14:51:57.895Z,17.43
2019-04-03T14:54:02.007Z,15.27
2019-04-03T14:56:06.371Z,17.10
2019-04-03T14:58:10.323Z,14.50
2019-04-03T15:00:26.067Z,14.63
2019-04-03T15:02:23.094Z,14.93
2019-04-03T15:04:26.371Z,15.83
2019-04-03T15:06:35.868Z,14.03
2019-04-03T15:08:45.198Z,12.23
2019-04-03T15:10:50.659Z,13.17
2019-04-03T15:12:54.938Z,14.30
2019-04-03T15:14:59.226Z,14.73
2019-04-03T15:17:06.323Z,17.13
2019-04-03T15:19:12.891Z,27.70
2019-04-03T15:21:16.583Z,23.20
2019-04-03T15:23:20.919Z,19.07
2019-04-03T15:25:24.941Z,15.03
2019-04-03T15:27:29.683Z,13.90
2019-04-03T15:29:36.187Z,14.63
2019-04-03T15:31:39.329Z,16.33
2019-04-03T15:33:43.623Z,13.60
2019-04-03T15:35:47.908Z,13.20
2019-04-03T15:37:52.344Z,14.13
2019-04-03T15:39:58.308Z,13.60
2019-04-03T15:42:03.794Z,16.53
2019-04-03T15:44:08.245Z,16.17
2019-04-03T15:46:12.161Z,15.90
2019-04-03T15:48:17.043Z,15.47
2019-04-03T15:50:21.917Z,13.63
2019-04-03T15:52:26.172Z,16.00
2019-04-03T15:54:34.026Z,11.87
2019-04-03T15:56:38.276Z,13.47
2019-04-03T15:58:42.199Z,15.83
2019-04-03T16:00:46.087Z,16.40
2019-04-03T16:02:50.033Z,16.60
2019-04-03T16:04:53.962Z,14.60
2019-04-03T16:07:00.670Z,16.77
2019-04-03T16:09:04.761Z,15.23
2019-04-03T16:11:08.665Z,15.60
2019-04-03T16:13:15.555Z,15.40
2019-04-03T16:15:18.286Z,15.90
2019-04-03T16:17:22.596Z,16.90
2019-04-03T16:19:27.082Z,13.63
2019-04-03T16:21:31.720Z,14.23
2019-04-03T16:23:37.292Z,16.80
2019-04-03T16:25:41.266Z,17.00
2019-04-03T16:27:45.299Z,18.93
2019-04-03T16:29:49.233Z,17.03
2019-04-03T16:31:54.599Z,17.00
2019-04-03T16:33:58.712Z,15.43
2019-04-03T16:36:03.014Z,18.43
2019-04-03T16:38:07.216Z,19.90
2019-04-03T16:40:11.584Z,15.53
2019-04-03T16:42:16.020Z,16.47
2019-04-03T16:44:21.010Z,18.43
2019-04-03T16:46:24.970Z,17.57
2019-04-03T16:48:28.982Z,19.07
2019-04-03T16:50:32.906Z,15.60
2019-04-03T16:52:37.828Z,17.97
2019-04-03T16:54:44.423Z,18.00
2019-04-03T16:56:48.831Z,19.83
2019-04-03T16:58:53.644Z,16.27
2019-04-03T17:00:57.977Z,18.27
2019-04-03T17:03:02.167Z,21.40
2019-04-03T17:05:10.162Z,18.03
2019-04-03T17:07:13.424Z,18.27
2019-04-03T17:09:17.341Z,18.70
2019-04-03T17:11:21.594Z,17.63
2019-04-03T17:13:25.588Z,19.47
2019-04-03T17:15:29.499Z,16.80
2019-04-03T17:17:33.824Z,17.87
2019-04-03T17:19:37.889Z,19.33
2019-04-03T17:21:42.168Z,19.77
2019-04-03T17:23:46.702Z,18.40
2019-04-03T17:25:51.708Z,19.70
2019-04-03T17:27:58.119Z,20.53
2019-04-03T17:30:01.481Z,22.93
2019-04-03T17:32:08.225Z,21.20
2019-04-03T17:34:11.821Z,19.73
2019-04-03T17:36:19.148Z,27.50
2019-04-03T17:38:21.543Z,21.17
2019-04-03T17:40:25.497Z,21.20
2019-04-03T17:42:29.439Z,21.43
2019-04-03T17:44:33.328Z,19.13
2019-04-03T17:46:39.992Z,20.40
2019-04-03T17:48:44.213Z,19.70
2019-04-03T17:50:48.092Z,21.03
2019-04-03T17:52:52.020Z,19.47
2019-04-03T17:54:55.913Z,18.37
2019-04-03T17:56:59.837Z,19.00
2019-04-03T17:59:03.743Z,22.57
2019-04-03T18:01:07.633Z,21.97
2019-04-03T18:03:11.630Z,20.80
2019-04-03T18:05:15.732Z,22.67
2019-04-03T18:07:19.654Z,22.57
2019-04-03T18:09:23.580Z,20.10
2019-04-03T18:11:27.471Z,21.30
2019-04-03T18:13:31.406Z,21.57
2019-04-03T18:15:35.290Z,23.13
2019-04-03T18:17:39.202Z,26.93
2019-04-03T18:19:43.112Z,22.07
2019-04-03T18:21:48.914Z,21.40
2019-04-03T18:23:53.347Z,22.13
2019-04-03T18:25:59.385Z,23.33
2019-04-03T18:28:05.015Z,23.57
2019-04-03T18:30:11.849Z,22.63
2019-04-03T18:32:17.729Z,19.97
2019-04-03T18:34:21.621Z,20.43
2019-04-03T18:36:27.332Z,28.90
2019-04-03T18:38:31.176Z,21.23
2019-04-03T18:40:35.173Z,23.40
2019-04-03T18:42:39.111Z,26.87
2019-04-03T18:44:43.000Z,26.43
2019-04-03T18:46:49.987Z,27.77
2019-04-03T18:48:53.843Z,28.13
2019-04-03T18:50:58.184Z,27.93
2019-04-03T18:53:02.605Z,29.97
2019-04-03T18:55:07.300Z,31.07
2019-04-03T18:57:11.184Z,29.33
2019-04-03T18:59:15.446Z,31.37
2019-04-03T19:01:19.622Z,36.23
2019-04-03T19:03:23.545Z,35.73
2019-04-03T19:05:27.448Z,33.17
2019-04-03T19:07:31.404Z,32.53
2019-04-03T19:09:35.288Z,33.47
2019-04-03T19:11:40.875Z,33.87
2019-04-03T19:13:48.982Z,32.63
2019-04-03T19:15:50.456Z,34.53
2019-04-03T19:17:59.843Z,35.97
2019-04-03T19:20:10.156Z,38.90
2019-04-03T19:22:05.440Z,37.40
2019-04-03T19:24:09.398Z,36.53
2019-04-03T19:26:13.279Z,35.60
2019-04-03T19:28:17.252Z,36.47
2019-04-03T19:30:21.255Z,39.13
2019-04-03T19:32:25.311Z,36.40
2019-04-03T19:34:29.320Z,38.77
2019-04-03T19:36:33.281Z,38.57
2019-04-03T19:38:42.336Z,38.10
2019-04-03T19:40:46.760Z,38.60
2019-04-03T19:42:51.146Z,40.30
2019-04-03T19:44:55.066Z,40.53
2019-04-03T19:46:59.836Z,38.40
2019-04-03T19:49:04.822Z,37.10
2019-04-03T19:51:11.148Z,39.40
2019-04-03T19:53:15.545Z,37.37
2019-04-03T19:55:21.453Z,36.83
2019-04-03T19:57:26.699Z,42.93
2019-04-03T19:59:34.241Z,39.97
2019-04-03T20:01:38.756Z,40.73
2019-04-03T20:03:44.066Z,38.17
2019-04-03T20:05:50.203Z,36.93
2019-04-03T20:07:54.149Z,44.40
2019-04-03T20:09:58.842Z,41.50
2019-04-03T20:12:03.134Z,41.33
2019-04-03T20:14:11.314Z,36.73
2019-04-03T20:16:14.050Z,38.00
2019-04-03T20:18:18.744Z,38.03
2019-04-03T20:20:22.951Z,43.47
2019-04-03T20:22:26.861Z,38.57
2019-04-03T20:24:30.801Z,40.50
2019-04-03T20:26:34.732Z,37.87
2019-04-03T20:28:38.654Z,42.83
2019-04-03T20:30:42.614Z,40.97
2019-04-03T20:32:46.562Z,42.93
2019-04-03T20:34:50.513Z,40.93
2019-04-03T20:36:54.913Z,40.50
2019-04-03T20:38:59.071Z,41.77
2019-04-03T20:41:03.119Z,46.23
2019-04-03T20:43:07.754Z,44.20
2019-04-03T20:45:11.861Z,45.53
2019-04-03T20:47:15.774Z,40.93
2019-04-03T20:49:19.646Z,44.87
2019-04-03T20:51:23.568Z,42.13
2019-04-03T20:53:27.456Z,44.30
2019-04-03T20:55:31.347Z,43.30
2019-04-03T20:57:35.304Z,42.80
2019-04-03T20:59:42.652Z,39.60
2019-04-03T21:01:44.799Z,42.97
2019-04-03T21:03:48.685Z,41.77
2019-04-03T21:05:52.629Z,44.60
2019-04-03T21:07:56.512Z,39.63
2019-04-03T21:10:00.995Z,40.33
2019-04-03T21:12:05.654Z,42.57
2019-04-03T21:14:11.288Z,42.40
2019-04-03T21:16:16.956Z,40.27
2019-04-03T21:18:21.204Z,42.40
2019-04-03T21:20:25.136Z,44.17
2019-04-03T21:22:30.261Z,40.07
2019-04-03T21:24:34.929Z,39.37
2019-04-03T21:26:39.027Z,38.77
2019-04-03T21:28:44.705Z,36.03
2019-04-03T21:30:48.817Z,35.20
2019-04-03T21:32:52.740Z,35.87
2019-04-03T21:34:56.619Z,41.23
2019-04-03T21:37:00.512Z,40.33
2019-04-03T21:39:06.159Z,38.30
2019-04-03T21:41:10.088Z,40.63
2019-04-03T21:43:14.050Z,38.10
2019-04-03T21:45:17.960Z,37.87
2019-04-03T21:47:21.852Z,38.03
2019-04-03T21:49:25.788Z,34.93
2019-04-03T21:51:29.695Z,37.63
2019-04-03T21:53:33.621Z,40.40
2019-04-03T21:55:37.514Z,38.97
2019-04-03T21:57:41.432Z,41.13
2019-04-03T21:59:45.359Z,38.07
2019-04-03T22:01:49.444Z,40.67
2019-04-03T22:03:53.756Z,38.67
2019-04-03T22:05:57.769Z,36.17
2019-04-03T22:08:01.649Z,36.53
2019-04-03T22:10:08.991Z,37.27
2019-04-03T22:12:13.015Z,39.30
2019-04-03T22:14:16.944Z,35.13
2019-04-03T22:16:20.954Z,36.73
2019-04-03T22:18:24.833Z,35.17
2019-04-03T22:20:29.593Z,37.50
2019-04-03T22:22:34.376Z,32.63
2019-04-03T22:24:38.486Z,32.40
2019-04-03T22:26:42.451Z,31.43
2019-04-03T22:28:46.588Z,31.30
2019-04-03T22:30:52.287Z,31.70
2019-04-03T22:32:56.436Z,31.20
2019-04-03T22:35:00.905Z,38.30
2019-04-03T22:37:05.440Z,37.47
2019-04-03T22:39:09.333Z,37.73
2019-04-03T22:41:13.240Z,36.60
2019-04-03T22:45:21.907Z,36.70
2019-04-03T22:47:25.841Z,41.10
2019-04-03T22:49:30.025Z,39.60
2019-04-03T22:51:34.004Z,33.97
2019-04-03T22:53:37.894Z,34.37
2019-04-03T22:55:41.801Z,35.83
2019-04-03T22:57:46.345Z,38.90
2019-04-03T22:59:50.294Z,32.70
2019-04-03T23:01:54.273Z,35.10
2019-04-03T23:03:58.188Z,35.20
2019-04-03T23:06:02.084Z,36.10
2019-04-03T23:08:05.973Z,35.37
2019-04-03T23:10:09.984Z,31.43
2019-04-03T23:12:13.955Z,30.80
2019-04-03T23:14:17.844Z,33.90
2019-04-03T23:16:21.741Z,30.93
2019-04-03T23:18:25.769Z,33.27
2019-04-03T23:20:29.671Z,30.37
2019-04-03T23:22:33.557Z,33.67
2019-04-03T23:24:37.658Z,30.97
2019-04-03T23:26:41.604Z,25.40
2019-04-03T23:28:45.494Z,27.60
2019-04-03T23:30:49.424Z,29.13
2019-04-03T23:32:53.309Z,33.07
2019-04-03T23:34:57.209Z,29.60
2019-04-03T23:37:01.107Z,31.17
2019-04-03T23:39:07.566Z,30.73
2019-04-03T23:41:11.441Z,33.00
2019-04-03T23:43:15.394Z,30.37
2019-04-03T23:45:19.983Z,31.20
2019-04-03T23:47:23.897Z,26.97
2019-04-03T23:49:27.818Z,29.03
2019-04-03T23:51:31.908Z,32.53
2019-04-03T23:53:35.829Z,32.10
2019-04-03T23:55:39.723Z,32.60
2019-04-03T23:57:43.593Z,30.63
2019-04-03T23:59:47.508Z,30.87
